createdAt,value
2018-09-24T00:00:20.854Z,10.67
2018-09-24T00:02:47.993Z,9.37
2018-09-24T00:05:15.233Z,8.93
2018-09-24T00:07:42.448Z,9.67
2018-09-24T00:10:09.710Z,13.43
2018-09-24T00:12:36.827Z,13.00
2018-09-24T00:15:04.274Z,11.90
2018-09-24T00:17:31.506Z,10.13
2018-09-24T00:19:58.631Z,10.23
2018-09-24T00:22:25.773Z,11.30
2018-09-24T00:24:52.981Z,11.57
2018-09-24T00:27:20.126Z,10.53
2018-09-24T00:29:47.312Z,13.67
2018-09-24T00:32:14.492Z,8.00
2018-09-24T00:34:41.673Z,11.50
2018-09-24T00:37:08.801Z,10.50
2018-09-24T00:39:35.956Z,9.23
2018-09-24T00:42:03.162Z,14.93
2018-09-24T00:44:30.281Z,16.00
2018-09-24T00:46:57.488Z,10.37
2018-09-24T00:49:24.694Z,10.80
2018-09-24T00:51:51.832Z,11.67
2018-09-24T00:54:19.085Z,10.90
2018-09-24T00:56:46.205Z,9.07
2018-09-24T00:59:13.316Z,9.30
2018-09-24T01:01:40.468Z,11.23
2018-09-24T01:04:07.686Z,10.47
2018-09-24T01:06:34.807Z,9.40
2018-09-24T01:09:01.973Z,7.60
2018-09-24T01:11:29.182Z,13.17
2018-09-24T01:13:56.355Z,11.47
2018-09-24T01:16:23.528Z,7.27
2018-09-24T01:18:50.639Z,10.77
2018-09-24T01:21:17.760Z,9.60
2018-09-24T01:23:45.025Z,12.17
2018-09-24T01:26:12.141Z,8.83
2018-09-24T01:28:39.248Z,9.27
2018-09-24T01:31:06.429Z,9.90
2018-09-24T01:33:33.560Z,8.40
2018-09-24T01:36:00.730Z,11.60
2018-09-24T01:38:27.960Z,12.77
2018-09-24T01:40:55.133Z,9.77
2018-09-24T01:43:22.371Z,9.03
2018-09-24T01:45:49.578Z,7.60
2018-09-24T01:48:16.696Z,12.63
2018-09-24T01:50:43.869Z,10.37
2018-09-24T01:53:11.012Z,11.10
2018-09-24T01:55:38.140Z,8.70
2018-09-24T01:58:05.342Z,7.27
2018-09-24T02:00:32.521Z,12.50
2018-09-24T02:02:59.660Z,7.00
2018-09-24T02:05:30.021Z,9.10
2018-09-24T02:07:57.276Z,8.20
2018-09-24T02:10:25.312Z,11.70
2018-09-24T02:12:54.427Z,10.63
2018-09-24T02:15:25.428Z,5.77
2018-09-24T02:17:52.689Z,11.17
2018-09-24T02:20:19.839Z,6.60
2018-09-24T02:22:47.043Z,8.57
2018-09-24T02:25:14.252Z,5.50
2018-09-24T02:27:41.378Z,7.47
2018-09-24T02:30:12.206Z,7.33
2018-09-24T02:32:39.332Z,6.37
2018-09-24T02:35:06.489Z,6.07
2018-09-24T02:37:33.804Z,8.70
2018-09-24T02:40:00.959Z,12.07
2018-09-24T02:42:28.180Z,4.03
2018-09-24T02:44:56.180Z,9.70
2018-09-24T02:47:23.325Z,5.27
2018-09-24T02:49:50.520Z,8.03
2018-09-24T02:52:17.710Z,5.67
2018-09-24T02:54:44.833Z,7.33
2018-09-24T02:57:11.957Z,5.93
2018-09-24T02:59:43.912Z,6.57
2018-09-24T03:02:11.115Z,7.50
2018-09-24T03:04:38.325Z,9.97
2018-09-24T03:07:05.710Z,10.70
2018-09-24T03:09:34.201Z,5.43
2018-09-24T03:12:01.310Z,8.60
2018-09-24T03:14:28.534Z,8.70
2018-09-24T03:16:55.766Z,8.70
2018-09-24T03:19:23.018Z,7.60
2018-09-24T03:21:50.328Z,8.43
2018-09-24T03:24:17.441Z,6.23
2018-09-24T03:26:44.594Z,6.20
2018-09-24T03:29:17.521Z,8.20
2018-09-24T03:31:44.642Z,8.03
2018-09-24T03:34:13.241Z,9.67
2018-09-24T03:36:40.435Z,5.43
2018-09-24T03:39:07.599Z,7.60
2018-09-24T03:41:34.717Z,7.20
2018-09-24T03:44:01.924Z,7.87
2018-09-24T03:46:29.102Z,4.87
2018-09-24T03:48:56.514Z,10.60
2018-09-24T03:51:23.800Z,7.47
2018-09-24T03:53:50.927Z,11.40
2018-09-24T03:56:18.056Z,4.63
2018-09-24T03:58:45.318Z,6.90
2018-09-24T04:01:12.486Z,6.13
2018-09-24T04:03:39.757Z,5.00
2018-09-24T04:06:12.808Z,7.00
2018-09-24T04:08:45.787Z,4.97
2018-09-24T04:18:29.573Z,5.27
2018-09-24T04:21:02.458Z,4.77
2018-09-24T04:23:35.412Z,5.63
2018-09-24T04:26:08.423Z,5.23
2018-09-24T04:28:41.318Z,4.80
2018-09-24T04:31:14.180Z,6.30
2018-09-24T04:33:47.134Z,5.43
2018-09-24T04:36:20.064Z,7.30
2018-09-24T04:38:52.946Z,5.53
2018-09-24T04:41:25.885Z,6.37
2018-09-24T04:43:58.837Z,7.43
2018-09-24T04:46:31.630Z,3.37
2018-09-24T04:49:05.610Z,8.03
2018-09-24T04:51:38.434Z,4.07
2018-09-24T04:54:11.346Z,4.50
2018-09-24T04:56:44.265Z,3.47
2018-09-24T04:59:17.194Z,6.73
2018-09-24T05:01:50.161Z,3.50
2018-09-24T05:04:23.081Z,7.20
2018-09-24T05:06:55.932Z,4.07
2018-09-24T05:09:28.882Z,4.07
2018-09-24T05:12:01.834Z,4.30
2018-09-24T05:14:34.780Z,3.43
2018-09-24T05:17:07.624Z,5.53
2018-09-24T05:19:40.632Z,4.20
2018-09-24T05:22:13.881Z,4.37
2018-09-24T05:24:46.744Z,5.00
2018-09-24T05:27:19.648Z,5.27
2018-09-24T05:29:52.625Z,5.07
2018-09-24T05:32:25.524Z,3.60
2018-09-24T05:34:58.439Z,3.53
2018-09-24T05:37:31.346Z,5.87
2018-09-24T05:40:04.266Z,5.30
2018-09-24T05:42:37.109Z,4.23
2018-09-24T05:45:10.618Z,5.73
2018-09-24T05:47:43.456Z,4.90
2018-09-24T05:50:16.324Z,3.80
2018-09-24T05:52:49.110Z,5.97
2018-09-24T05:55:22.065Z,5.07
2018-09-24T05:57:54.885Z,7.77
2018-09-24T06:00:27.742Z,5.83
2018-09-24T06:03:00.648Z,6.17
2018-09-24T06:05:36.593Z,5.10
2018-09-24T06:08:09.442Z,6.60
2018-09-24T06:10:42.341Z,6.33
2018-09-24T06:13:15.247Z,3.87
2018-09-24T06:15:48.215Z,8.07
2018-09-24T06:18:21.061Z,4.83
2018-09-24T06:20:53.973Z,6.17
2018-09-24T06:23:26.785Z,6.27
2018-09-24T06:25:59.792Z,4.67
2018-09-24T06:28:32.744Z,6.87
2018-09-24T06:31:05.600Z,6.27
2018-09-24T06:33:38.438Z,5.40
2018-09-24T06:36:11.400Z,4.13
2018-09-24T06:38:44.324Z,6.60
2018-09-24T06:41:17.327Z,4.43
2018-09-24T06:43:50.176Z,3.83
2018-09-24T06:46:23.129Z,5.00
2018-09-24T06:48:56.049Z,9.17
2018-09-24T06:51:29.109Z,4.27
2018-09-24T06:54:02.072Z,7.77
2018-09-24T06:56:35.137Z,7.53
2018-09-24T06:59:08.007Z,6.50
2018-09-24T07:01:40.832Z,6.20
2018-09-24T07:04:13.667Z,5.90
2018-09-24T07:06:47.536Z,4.60
2018-09-24T07:09:20.456Z,6.53
2018-09-24T07:11:53.284Z,7.30
2018-09-24T07:14:26.425Z,7.27
2018-09-24T07:17:00.276Z,9.90
2018-09-24T07:19:33.205Z,7.53
2018-09-24T07:22:06.128Z,5.80
2018-09-24T07:24:39.055Z,6.53
2018-09-24T07:27:12.020Z,6.03
2018-09-24T07:29:44.982Z,5.13
2018-09-24T07:32:17.950Z,7.67
2018-09-24T07:34:50.967Z,7.27
2018-09-24T07:37:23.856Z,8.03
2018-09-24T07:39:56.673Z,5.70
2018-09-24T07:42:29.613Z,4.93
2018-09-24T07:45:02.495Z,6.23
2018-09-24T07:47:35.413Z,4.10
2018-09-24T07:50:08.301Z,6.73
2018-09-24T07:52:41.295Z,6.20
2018-09-24T07:55:14.173Z,7.37
2018-09-24T07:57:47.074Z,6.87
2018-09-24T08:00:19.901Z,4.13
2018-09-24T08:02:52.696Z,5.10
2018-09-24T08:05:25.632Z,7.40
2018-09-24T08:07:58.520Z,5.30
2018-09-24T08:10:31.325Z,10.20
2018-09-24T08:13:04.227Z,4.87
2018-09-24T08:15:37.174Z,6.93
2018-09-24T08:18:09.966Z,5.43
2018-09-24T08:20:42.696Z,6.50
2018-09-24T08:23:15.601Z,8.60
2018-09-24T08:25:48.484Z,5.97
2018-09-24T08:28:21.552Z,6.50
2018-09-24T08:30:54.263Z,9.13
2018-09-24T08:33:27.165Z,5.73
2018-09-24T08:36:00.099Z,2.93
2018-09-24T08:38:33.164Z,8.80
2018-09-24T08:41:06.030Z,7.93
2018-09-24T08:43:39.063Z,4.37
2018-09-24T08:46:11.940Z,7.30
2018-09-24T08:48:44.841Z,7.13
2018-09-24T08:51:17.595Z,7.30
2018-09-24T08:53:50.323Z,4.50
2018-09-24T08:56:23.264Z,5.30
2018-09-24T08:58:56.058Z,3.67
2018-09-24T09:01:28.813Z,3.70
2018-09-24T09:04:01.635Z,4.50
2018-09-24T09:06:34.544Z,3.80
2018-09-24T09:09:11.309Z,4.87
2018-09-24T09:11:44.209Z,3.10
2018-09-24T09:14:17.132Z,4.67
2018-09-24T09:16:50.082Z,5.60
2018-09-24T09:19:23.096Z,8.10
2018-09-24T09:21:55.969Z,3.73
2018-09-24T09:24:28.755Z,6.23
2018-09-24T09:27:02.572Z,7.43
2018-09-24T09:29:37.516Z,7.63
2018-09-24T09:32:10.377Z,4.13
2018-09-24T09:34:43.209Z,3.33
2018-09-24T09:37:16.082Z,7.07
2018-09-24T09:39:52.489Z,6.33
2018-09-24T09:42:25.402Z,6.37
2018-09-24T09:44:58.205Z,5.67
2018-09-24T09:47:31.318Z,5.57
2018-09-24T09:50:05.056Z,6.37
2018-09-24T09:52:37.981Z,4.73
2018-09-24T09:55:10.785Z,4.43
2018-09-24T09:57:43.693Z,4.23
2018-09-24T10:00:16.753Z,3.83
2018-09-24T10:02:49.593Z,6.00
2018-09-24T10:05:22.537Z,4.73
2018-09-24T10:07:55.397Z,4.63
2018-09-24T10:10:28.245Z,7.17
2018-09-24T10:13:01.121Z,5.17
2018-09-24T10:15:34.025Z,3.33
2018-09-24T10:18:06.891Z,6.70
2018-09-24T10:20:39.757Z,3.47
2018-09-24T10:23:12.613Z,5.10
2018-09-24T10:25:45.554Z,4.03
2018-09-24T10:28:18.477Z,12.50
2018-09-24T10:30:51.419Z,4.03
2018-09-24T10:33:24.252Z,4.30
2018-09-24T10:35:57.025Z,4.43
2018-09-24T10:38:29.908Z,3.57
2018-09-24T10:41:02.797Z,5.63
2018-09-24T10:43:35.597Z,3.97
2018-09-24T10:46:08.599Z,2.17
2018-09-24T10:48:41.503Z,3.23
2018-09-24T10:51:14.298Z,4.23
2018-09-24T10:53:47.202Z,6.23
2018-09-24T10:56:20.177Z,3.67
2018-09-24T10:58:53.065Z,9.10
2018-09-24T11:01:28.090Z,4.77
2018-09-24T11:04:00.913Z,5.67
2018-09-24T11:06:33.966Z,4.17
2018-09-24T11:09:06.913Z,4.50
2018-09-24T11:11:39.828Z,3.13
2018-09-24T11:14:12.658Z,5.63
2018-09-24T11:16:45.632Z,4.40
2018-09-24T11:19:18.445Z,8.27
2018-09-24T11:21:51.342Z,4.40
2018-09-24T11:24:24.186Z,2.67
2018-09-24T11:26:57.174Z,3.10
2018-09-24T11:29:30.177Z,4.73
2018-09-24T11:32:03.122Z,5.23
2018-09-24T11:34:35.980Z,4.50
2018-09-24T11:37:09.121Z,5.87
2018-09-24T11:39:42.017Z,4.87
2018-09-24T11:42:14.917Z,3.83
2018-09-24T11:44:47.767Z,3.50
2018-09-24T11:47:20.601Z,5.23
2018-09-24T11:49:53.457Z,4.00
2018-09-24T11:52:29.755Z,4.00
2018-09-24T11:55:06.053Z,3.50
2018-09-24T11:57:38.942Z,3.63
2018-09-24T12:00:11.876Z,4.97
2018-09-24T12:02:44.831Z,4.37
2018-09-24T12:05:17.680Z,6.03
2018-09-24T12:07:50.612Z,3.57
2018-09-24T12:10:33.303Z,3.53
2018-09-24T12:13:06.189Z,3.47
2018-09-24T12:15:39.104Z,2.73
2018-09-24T12:18:12.045Z,6.90
2018-09-24T12:20:45.019Z,5.30
2018-09-24T12:23:17.890Z,2.60
2018-09-24T12:25:51.067Z,2.90
2018-09-24T12:28:24.035Z,3.90
2018-09-24T12:30:59.946Z,3.70
2018-09-24T12:33:32.940Z,3.37
2018-09-24T12:36:08.103Z,4.77
2018-09-24T12:38:40.936Z,4.63
2018-09-24T12:41:13.960Z,6.33
2018-09-24T12:43:51.614Z,8.67
2018-09-24T12:46:24.581Z,3.20
2018-09-24T12:48:59.770Z,2.97
2018-09-24T12:51:32.890Z,3.23
2018-09-24T12:54:05.994Z,2.63
2018-09-24T12:56:38.874Z,2.43
2018-09-24T12:59:11.815Z,1.20
2018-09-24T13:01:44.769Z,1.93
2018-09-24T13:04:17.862Z,3.50
2018-09-24T13:06:56.752Z,3.23
2018-09-24T13:09:30.030Z,5.13
2018-09-24T13:14:50.541Z,2.00
2018-09-24T13:17:23.647Z,2.77
2018-09-24T13:19:56.834Z,2.47
2018-09-24T13:22:29.738Z,3.47
2018-09-24T13:25:02.781Z,2.17
2018-09-24T13:27:35.763Z,3.80
2018-09-24T13:30:08.746Z,1.77
2018-09-24T13:32:41.571Z,3.70
2018-09-24T13:35:14.609Z,2.73
2018-09-24T13:37:47.491Z,2.20
2018-09-24T13:40:20.894Z,2.83
2018-09-24T13:42:53.871Z,3.60
2018-09-24T13:45:26.921Z,2.80
2018-09-24T13:47:59.710Z,2.97
2018-09-24T13:50:32.707Z,2.07
2018-09-24T13:53:05.808Z,3.20
2018-09-24T13:55:38.714Z,5.60
2018-09-24T13:58:12.418Z,3.67
2018-09-24T14:00:45.536Z,4.67
2018-09-24T14:03:18.425Z,3.00
2018-09-24T14:05:51.643Z,5.83
2018-09-24T14:08:24.625Z,4.00
2018-09-24T14:10:57.669Z,6.40
2018-09-24T14:13:30.535Z,4.20
2018-09-24T14:16:03.458Z,2.70
2018-09-24T14:18:36.651Z,4.77
2018-09-24T14:21:09.568Z,3.10
2018-09-24T14:23:42.870Z,3.70
2018-09-24T14:26:19.228Z,2.93
2018-09-24T14:28:53.188Z,5.37
2018-09-24T14:31:26.262Z,2.70
2018-09-24T14:34:00.366Z,6.80
2018-09-24T14:36:33.398Z,4.10
2018-09-24T14:39:07.034Z,4.60
2018-09-24T14:41:39.865Z,4.93
2018-09-24T14:44:13.310Z,4.93
2018-09-24T14:46:46.364Z,3.70
2018-09-24T14:49:19.323Z,10.23
2018-09-24T14:51:52.261Z,3.27
2018-09-24T14:54:26.236Z,5.97
2018-09-24T14:56:59.769Z,2.10
2018-09-24T14:59:32.886Z,1.77
2018-09-24T15:02:06.178Z,4.70
2018-09-24T15:04:39.248Z,2.70
2018-09-24T15:07:16.266Z,2.03
2018-09-24T15:09:49.108Z,1.90
2018-09-24T15:12:22.276Z,2.93
2018-09-24T15:14:55.196Z,1.67
2018-09-24T15:17:28.096Z,1.80
2018-09-24T15:20:00.994Z,1.90
2018-09-24T15:22:34.523Z,2.33
2018-09-24T15:25:08.753Z,3.20
2018-09-24T15:27:41.656Z,2.53
2018-09-24T15:30:14.528Z,5.00
2018-09-24T15:32:49.778Z,3.00
2018-09-24T15:35:22.723Z,2.43
2018-09-24T15:37:55.656Z,2.73
2018-09-24T15:40:28.589Z,4.50
2018-09-24T15:43:03.550Z,2.43
2018-09-24T15:45:36.449Z,2.17
2018-09-24T15:48:10.761Z,2.87
2018-09-24T15:50:43.994Z,2.43
2018-09-24T15:53:17.214Z,1.87
2018-09-24T15:55:50.069Z,3.40
2018-09-24T15:58:26.490Z,2.93
2018-09-24T16:00:59.399Z,3.53
2018-09-24T16:03:32.506Z,3.50
2018-09-24T16:06:09.397Z,2.80
2018-09-24T16:08:42.793Z,2.00
2018-09-24T16:11:16.077Z,3.03
2018-09-24T16:13:49.005Z,1.10
2018-09-24T16:16:21.855Z,3.27
2018-09-24T16:18:54.732Z,4.23
2018-09-24T16:21:27.706Z,2.67
2018-09-24T16:24:00.629Z,3.03
2018-09-24T16:26:33.510Z,2.07
2018-09-24T16:29:06.649Z,3.40
2018-09-24T16:31:39.664Z,2.70
2018-09-24T16:34:12.653Z,2.13
2018-09-24T16:36:45.536Z,2.63
2018-09-24T16:39:18.483Z,2.37
2018-09-24T16:41:51.414Z,3.33
2018-09-24T16:44:24.329Z,3.53
2018-09-24T16:47:01.632Z,1.77
2018-09-24T16:49:34.525Z,2.70
2018-09-24T16:52:07.449Z,3.70
2018-09-24T16:54:40.429Z,3.43
2018-09-24T16:57:13.324Z,2.10
2018-09-24T16:59:47.573Z,1.97
2018-09-24T17:02:20.487Z,2.17
2018-09-24T17:04:53.753Z,3.50
2018-09-24T17:07:26.685Z,2.10
2018-09-24T17:09:59.871Z,2.73
2018-09-24T17:12:32.725Z,2.77
2018-09-24T17:15:05.601Z,2.13
2018-09-24T17:17:40.617Z,4.30
2018-09-24T17:20:13.628Z,1.20
2018-09-24T17:22:47.548Z,1.77
2018-09-24T17:25:24.900Z,3.70
2018-09-24T17:27:57.777Z,3.67
2018-09-24T17:30:32.666Z,3.03
2018-09-24T17:33:05.387Z,3.73
2018-09-24T17:35:39.480Z,3.73
2018-09-24T17:38:12.870Z,2.10
2018-09-24T17:40:45.697Z,3.07
2018-09-24T17:43:18.835Z,2.90
2018-09-24T17:45:51.934Z,7.80
2018-09-24T17:48:24.683Z,2.83
2018-09-24T17:50:59.808Z,2.07
2018-09-24T17:53:33.767Z,2.57
2018-09-24T17:56:06.944Z,3.07
2018-09-24T17:58:41.997Z,1.33
2018-09-24T18:01:20.111Z,1.70
2018-09-24T18:03:54.100Z,3.70
2018-09-24T18:06:27.581Z,4.27
2018-09-24T18:09:08.900Z,2.57
2018-09-24T18:11:53.763Z,2.90
2018-09-24T18:14:31.767Z,1.67
2018-09-24T18:17:08.132Z,2.47
2018-09-24T18:19:44.221Z,2.97
2018-09-24T18:22:18.504Z,3.40
2018-09-24T18:24:58.270Z,5.90
2018-09-24T18:27:32.031Z,2.27
2018-09-24T18:30:11.614Z,2.17
2018-09-24T18:32:45.574Z,2.87
2018-09-24T18:35:20.994Z,3.93
2018-09-24T18:37:56.231Z,2.83
2018-09-24T18:40:31.630Z,2.90
2018-09-24T18:43:05.533Z,2.03
2018-09-24T18:45:39.083Z,2.60
2018-09-24T18:48:14.796Z,2.03
2018-09-24T18:50:52.698Z,2.80
2018-09-24T18:53:26.993Z,1.77
2018-09-24T18:56:00.347Z,3.57
2018-09-24T18:58:33.913Z,4.23
2018-09-24T19:01:11.135Z,1.43
2018-09-24T19:03:44.930Z,2.23
2018-09-24T19:06:18.497Z,1.83
2018-09-24T19:08:52.567Z,2.73
2018-09-24T19:11:27.966Z,2.53
2018-09-24T19:14:02.493Z,1.60
2018-09-24T19:16:37.144Z,2.27
2018-09-24T19:19:11.926Z,2.00
2018-09-24T19:21:45.954Z,2.47
2018-09-24T19:24:19.403Z,2.33
2018-09-24T19:26:54.353Z,2.90
2018-09-24T19:29:27.331Z,5.10
2018-09-24T19:32:00.305Z,3.60
2018-09-24T19:34:33.516Z,3.80
2018-09-24T19:37:06.452Z,2.83
2018-09-24T19:39:39.352Z,2.73
2018-09-24T19:42:12.253Z,3.60
2018-09-24T19:44:45.185Z,4.73
2018-09-24T19:47:18.000Z,1.30
2018-09-24T19:49:50.917Z,2.07
2018-09-24T19:52:24.061Z,3.03
2018-09-24T19:54:57.032Z,2.73
2018-09-24T19:57:29.875Z,1.97
2018-09-24T20:00:03.831Z,2.13
2018-09-24T20:02:36.759Z,2.83
2018-09-24T20:05:09.748Z,4.00
2018-09-24T20:07:44.692Z,3.87
2018-09-24T20:10:17.562Z,2.53
2018-09-24T20:12:50.412Z,3.63
2018-09-24T20:15:27.204Z,3.37
2018-09-24T20:17:59.940Z,4.20
2018-09-24T20:20:32.866Z,2.03
2018-09-24T20:23:05.695Z,2.20
2018-09-24T20:25:40.320Z,5.80
2018-09-24T20:28:13.266Z,5.03
2018-09-24T20:30:46.175Z,3.03
2018-09-24T20:33:22.067Z,5.43
2018-09-24T20:35:55.541Z,3.17
2018-09-24T20:38:30.081Z,2.70
2018-09-24T20:44:04.678Z,2.57
2018-09-24T20:46:48.257Z,2.67
2018-09-24T20:49:23.545Z,4.47
2018-09-24T20:52:06.431Z,4.10
2018-09-24T20:57:31.333Z,4.90
2018-09-24T21:00:09.837Z,3.00
2018-09-24T21:02:49.716Z,3.93
2018-09-24T21:05:29.074Z,3.37
2018-09-24T21:08:05.771Z,2.77
2018-09-24T21:10:44.749Z,3.03
2018-09-24T21:13:25.942Z,4.80
2018-09-24T21:16:06.101Z,4.67
2018-09-24T21:18:46.757Z,3.70
2018-09-24T21:21:27.149Z,2.37
2018-09-24T21:24:06.877Z,4.57
2018-09-24T21:26:46.083Z,3.47
2018-09-24T21:29:24.587Z,3.80
2018-09-24T21:32:03.601Z,5.83
2018-09-24T21:34:41.786Z,5.13
2018-09-24T21:37:19.860Z,4.27
2018-09-24T21:39:57.953Z,3.67
2018-09-24T21:42:35.942Z,4.07
2018-09-24T21:45:11.780Z,6.23
2018-09-24T21:47:51.062Z,7.53
2018-09-24T21:50:29.075Z,4.50
2018-09-24T21:53:05.844Z,6.30
2018-09-24T21:55:44.811Z,6.00
2018-09-24T21:58:25.518Z,2.60
2018-09-24T22:01:05.479Z,5.67
2018-09-24T22:03:49.939Z,5.90
2018-09-24T22:06:27.818Z,3.10
2018-09-24T22:09:07.862Z,3.10
2018-09-24T22:11:50.468Z,4.93
2018-09-24T22:14:33.291Z,3.63
2018-09-24T22:17:13.468Z,2.73
2018-09-24T22:19:55.038Z,5.27
2018-09-24T22:22:37.395Z,5.07
2018-09-24T22:25:17.140Z,2.53
2018-09-24T22:30:41.417Z,6.83
2018-09-24T22:33:20.445Z,7.60
2018-09-24T22:36:01.916Z,5.27
2018-09-24T22:38:41.576Z,5.43
2018-09-24T22:41:24.149Z,3.57
2018-09-24T22:44:03.582Z,5.80
2018-09-24T22:46:42.436Z,4.27
2018-09-24T22:49:21.283Z,6.17
2018-09-24T22:52:01.432Z,4.60
2018-09-24T22:54:40.851Z,5.80
2018-09-24T22:57:24.177Z,3.63
2018-09-24T23:00:02.949Z,7.07
2018-09-24T23:02:44.816Z,4.10
2018-09-24T23:05:22.412Z,6.13
2018-09-24T23:08:04.339Z,8.20
2018-09-24T23:10:44.031Z,7.23
2018-09-24T23:13:29.167Z,8.10
2018-09-24T23:16:12.125Z,4.10
2018-09-24T23:18:52.216Z,4.90
2018-09-24T23:21:31.493Z,6.07
2018-09-24T23:24:15.117Z,3.33
2018-09-24T23:29:47.648Z,5.63
2018-09-24T23:32:27.512Z,6.23
2018-09-24T23:35:12.032Z,4.67
2018-09-24T23:37:54.453Z,4.87
2018-09-24T23:40:34.189Z,9.43
2018-09-24T23:46:04.590Z,6.27
2018-09-24T23:48:45.951Z,5.40
2018-09-24T23:51:25.142Z,6.17
2018-09-24T23:54:06.645Z,4.57
2018-09-24T23:56:47.754Z,6.40
2018-09-24T23:59:27.304Z,4.50
